| Date | Time | Temp. (oF) | Dew Point (oF) | Rel. Hum. (%) | Press. (in.) | Wind Dir. | Wind Speed (mph) | Hourly Rainfall (in.) |
|
|---|---|---|---|---|---|---|---|---|---|
| 1 | 03/28 | 00:00 | 35 | 25 | 67 | 30.19 | S | 1 | 0.00 |
| 2 | 03/27 | 23:00 | 36 | 25 | 66 | 30.20 | NNE | 0 | 0.00 |
| 3 | 03/27 | 22:00 | 37 | 21 | 54 | 30.23 | SE | 0 | 0.00 |
| 4 | 03/27 | 21:00 | 40 | 19 | 44 | 30.24 | SW | 0 | 0.00 |
| 5 | 03/27 | 20:00 | 44 | 16 | 33 | 30.22 | SSE | 0 | 0.00 |
| 6 | 03/27 | 19:00 | 47 | 15 | 28 | 30.22 | NW | 4 | 0.00 |
| 7 | 03/27 | 18:00 | 48 | 14 | 26 | 30.23 | NW | 7 | 0.00 |
| 8 | 03/27 | 17:00 | 49 | 20 | 32 | 30.23 | WNW | 9 | 0.00 |
| 9 | 03/27 | 16:00 | 48 | 17 | 29 | 30.25 | W | 6 | 0.00 |
| 10 | 03/27 | 15:00 | 47 | 14 | 27 | 30.29 | W | 3 | 0.00 |
| 11 | 03/27 | 14:00 | 46 | 15 | 29 | 30.31 | N | 12 | 0.00 |
| 12 | 03/27 | 13:00 | 43 | 19 | 39 | 30.34 | NNE | 5 | 0.00 |
| 13 | 03/27 | 12:00 | 41 | 14 | 34 | 30.36 | NNW | 7 | 0.00 |
| 14 | 03/27 | 11:00 | 37 | 13 | 37 | 30.38 | NW | 6 | 0.00 |
| 15 | 03/27 | 10:00 | 35 | 15 | 44 | 30.38 | NW | 5 | 0.00 |
| 16 | 03/27 | 09:00 | 33 | 14 | 46 | 30.37 | WSW | 8 | 0.00 |
| 17 | 03/27 | 08:00 | 30 | 14 | 53 | 30.36 | NNE | 4 | 0.00 |
| 18 | 03/27 | 07:00 | 28 | 14 | 56 | 30.35 | WSW | 3 | 0.00 |
| 19 | 03/27 | 06:00 | 29 | 13 | 51 | 30.32 | N | 6 | 0.00 |
| 20 | 03/27 | 05:00 | 29 | 12 | 50 | 30.30 | N | 6 | 0.00 |
| 21 | 03/27 | 04:00 | 31 | 13 | 47 | 30.29 | WSW | 5 | 0.00 |
| 22 | 03/27 | 03:00 | 32 | 11 | 42 | 30.27 | N | 7 | 0.00 |
| 23 | 03/27 | 02:00 | 32 | 10 | 41 | 30.26 | N | 8 | 0.00 |
| 24 | 03/27 | 01:00 | 33 | 11 | 40 | 30.26 | NNE | 10 | 0.00 |